Time;durP1;ratioP1;P1;durP2;ratioP2;P2;SDS_P1;SDS_P2;PMS_P1;PMS_P2;Temp;Humidity;BMP_temperature;BMP_pressure;BME280_temperature;BME280_humidity;BME280_pressure;Samples;Min_cycle;Max_cycle;Signal;HPM_P1;HPM_P2
2022/04/23 00:01:26;;;;;;;11.00;9.67;;;;;;;;;;5016343;28;20178;-82
2022/04/23 00:04:31;;;;;;;10.83;9.60;;;;;;;;;;5019102;28;20197;-79
2022/04/23 00:07:35;;;;;;;13.27;10.80;;;;;;;;;;5018797;28;20202;-82
2022/04/23 00:10:40;;;;;;;10.87;9.77;;;;;;;;;;5020587;28;20633;-83
2022/04/23 00:13:44;;;;;;;10.63;9.50;;;;;;;;;;5000804;28;20177;-84
2022/04/23 00:16:51;;;;;;;10.90;9.80;;;;;;;;;;4997704;28;20186;-81
2022/04/23 00:19:55;;;;;;;10.63;9.50;;;;;;;;;;5016327;28;20214;-79
2022/04/23 00:23:02;;;;;;;10.57;9.13;;;;;;;;;;4994197;28;20181;-82
2022/04/23 00:26:06;;;;;;;10.40;9.30;;;;;;;;;;5017878;28;20178;-83
2022/04/23 00:29:10;;;;;;;9.30;8.40;;;;;;;;;;5017428;28;20225;-85
2022/04/23 00:32:15;;;;;;;9.67;8.67;;;;;;;;;;5027356;28;20177;-82
2022/04/23 00:35:19;;;;;;;10.00;8.40;;;;;;;;;;5016119;28;20177;-82
2022/04/23 00:38:25;;;;;;;9.30;8.23;;;;;;;;;;5004325;28;20221;-82
2022/04/23 00:41:48;;;;;;;8.63;7.73;;;;;;;;;;5032049;28;20668;-80
2022/04/23 00:44:51;;;;;;;8.27;7.40;;;;;;;;;;5023998;28;20178;-84
2022/04/23 00:47:56;;;;;;;8.63;7.33;;;;;;;;;;5035260;28;20684;-84
2022/04/23 00:51:01;;;;;;;8.73;7.33;;;;;;;;;;5002171;28;20179;-84
2022/04/23 00:54:07;;;;;;;8.93;8.03;;;;;;;;;;5035879;28;20182;-84
2022/04/23 00:57:11;;;;;;;9.47;7.90;;;;;;;;;;5001131;28;20201;-84
2022/04/23 01:00:15;;;;;;;7.53;6.60;;;;;;;;;;5001622;28;20205;-84
2022/04/23 01:03:22;;;;;;;8.77;7.80;;;;;;;;;;5036332;28;20185;-84
2022/04/23 01:06:26;;;;;;;8.20;7.00;;;;;;;;;;5036270;28;20193;-84
2022/04/23 01:09:30;;;;;;;9.00;7.77;;;;;;;;;;5002427;28;20217;-84
2022/04/23 01:12:35;;;;;;;8.20;7.13;;;;;;;;;;4999898;28;20197;-84
2022/04/23 01:15:43;;;;;;;10.07;7.50;;;;;;;;;;5031183;28;20182;-84
2022/04/23 01:18:47;;;;;;;9.53;7.57;;;;;;;;;;5000578;28;20213;-84
2022/04/23 01:21:51;;;;;;;8.63;7.63;;;;;;;;;;5001037;28;20181;-84
2022/04/23 01:24:55;;;;;;;9.30;7.90;;;;;;;;;;5034255;28;20187;-84
2022/04/23 01:28:00;;;;;;;9.10;7.50;;;;;;;;;;5000152;28;20620;-84
2022/04/23 01:31:05;;;;;;;9.23;7.90;;;;;;;;;;4999597;28;20177;-84
2022/04/23 01:34:10;;;;;;;9.50;7.93;;;;;;;;;;4999561;28;20189;-84
2022/04/23 01:37:14;;;;;;;9.40;8.20;;;;;;;;;;4999281;28;20178;-84
2022/04/23 01:40:19;;;;;;;11.47;8.00;;;;;;;;;;5033089;28;20213;-84
2022/04/23 01:43:23;;;;;;;9.80;7.93;;;;;;;;;;5022617;28;20194;-84
2022/04/23 01:46:27;;;;;;;13.90;8.53;;;;;;;;;;5021669;28;20185;-84
2022/04/23 01:49:31;;;;;;;9.87;8.17;;;;;;;;;;5000482;28;20213;-84
2022/04/23 01:52:35;;;;;;;11.37;7.70;;;;;;;;;;4999513;28;20197;-84
2022/04/23 01:55:39;;;;;;;8.87;7.40;;;;;;;;;;4999224;28;20181;-84
2022/04/23 01:58:43;;;;;;;9.23;7.70;;;;;;;;;;5021427;28;20228;-84
2022/04/23 02:01:48;;;;;;;8.33;7.40;;;;;;;;;;5021818;28;20169;-84
2022/04/23 02:04:52;;;;;;;9.67;7.40;;;;;;;;;;5033295;28;20190;-84
2022/04/23 02:07:56;;;;;;;9.57;7.77;;;;;;;;;;5021209;28;20703;-84
2022/04/23 02:11:00;;;;;;;8.80;7.40;;;;;;;;;;4998959;28;20185;-84
2022/04/23 02:14:05;;;;;;;8.70;7.80;;;;;;;;;;5020886;28;20181;-84
2022/04/23 02:17:09;;;;;;;11.80;8.97;;;;;;;;;;5020531;28;20629;-84
2022/04/23 02:20:15;;;;;;;9.30;8.30;;;;;;;;;;5032493;28;20209;-84
2022/04/23 02:23:19;;;;;;;10.00;8.53;;;;;;;;;;5010373;28;20182;-84
2022/04/23 02:26:24;;;;;;;10.83;8.87;;;;;;;;;;5021195;28;20202;-84
2022/04/23 02:29:28;;;;;;;9.60;8.60;;;;;;;;;;4998855;28;20217;-84
2022/04/23 02:32:32;;;;;;;11.00;9.07;;;;;;;;;;4999280;28;20177;-84
2022/04/23 02:35:36;;;;;;;11.17;9.27;;;;;;;;;;4999087;28;20178;-84
2022/04/23 02:38:41;;;;;;;11.30;9.47;;;;;;;;;;4999947;28;20213;-84
2022/04/23 02:41:45;;;;;;;11.27;9.13;;;;;;;;;;5018819;28;20178;-84
2022/04/23 02:44:50;;;;;;;10.47;8.83;;;;;;;;;;5032838;28;20182;-84
2022/04/23 02:47:56;;;;;;;11.17;9.63;;;;;;;;;;5032675;28;20212;-84
2022/04/23 02:51:00;;;;;;;12.47;9.33;;;;;;;;;;4998877;28;20169;-84
2022/04/23 02:54:05;;;;;;;12.03;9.67;;;;;;;;;;5022606;28;20181;-84
2022/04/23 02:57:11;;;;;;;14.03;10.33;;;;;;;;;;5010566;28;20178;-84
2022/04/23 03:00:16;;;;;;;14.23;10.40;;;;;;;;;;5033513;28;20205;-84
2022/04/23 03:03:21;;;;;;;12.70;10.27;;;;;;;;;;5021852;28;20181;-84
2022/04/23 03:06:30;;;;;;;12.30;9.70;;;;;;;;;;5019461;28;20186;-84
2022/04/23 03:09:34;;;;;;;14.27;9.93;;;;;;;;;;5015650;28;20217;-82
2022/04/23 03:12:38;;;;;;;11.80;10.07;;;;;;;;;;5024720;28;20185;-82
2022/04/23 03:15:45;;;;;;;12.30;10.30;;;;;;;;;;5004130;28;20201;-82
2022/04/23 03:18:48;;;;;;;13.30;10.23;;;;;;;;;;5002151;28;20221;-82
2022/04/23 03:21:53;;;;;;;13.10;9.97;;;;;;;;;;5012808;28;20170;-82
2022/04/23 03:24:56;;;;;;;13.10;10.73;;;;;;;;;;5024996;28;20182;-81
2022/04/23 03:28:01;;;;;;;12.40;9.53;;;;;;;;;;4990850;28;20217;-82
2022/04/23 03:31:05;;;;;;;14.27;10.53;;;;;;;;;;5012805;28;20193;-82
2022/04/23 03:34:09;;;;;;;12.57;10.20;;;;;;;;;;5024195;28;20529;-83
2022/04/23 03:37:13;;;;;;;12.20;10.07;;;;;;;;;;5012871;28;20177;-82
2022/04/23 03:40:17;;;;;;;12.90;10.80;;;;;;;;;;5004913;28;20217;-84
2022/04/23 03:43:24;;;;;;;12.70;9.77;;;;;;;;;;4998216;28;20181;-84
2022/04/23 03:46:28;;;;;;;13.50;10.07;;;;;;;;;;4996803;28;20181;-83
2022/04/23 03:49:33;;;;;;;12.40;9.53;;;;;;;;;;5005238;28;20220;-79
2022/04/23 03:52:37;;;;;;;11.53;9.30;;;;;;;;;;5036300;28;20182;-84
2022/04/23 03:55:41;;;;;;;11.67;9.37;;;;;;;;;;4995350;28;20181;-79
2022/04/23 03:58:45;;;;;;;9.53;8.30;;;;;;;;;;5002407;28;20209;-84
2022/04/23 04:01:53;;;;;;;10.73;8.47;;;;;;;;;;5028936;28;20209;-79
2022/04/23 04:04:57;;;;;;;10.80;8.73;;;;;;;;;;5022424;28;20529;-84
2022/04/23 04:08:02;;;;;;;10.43;7.90;;;;;;;;;;5018699;28;20225;-82
2022/04/23 04:11:06;;;;;;;12.50;7.77;;;;;;;;;;5006640;28;20533;-84
2022/04/23 04:14:09;;;;;;;9.40;7.60;;;;;;;;;;4993346;28;20522;-82
2022/04/23 04:17:15;;;;;;;9.17;7.77;;;;;;;;;;5022182;28;20177;-82
2022/04/23 04:20:20;;;;;;;8.77;7.80;;;;;;;;;;5007307;28;20209;-82
2022/04/23 04:23:26;;;;;;;9.77;7.40;;;;;;;;;;4993491;28;20544;-82
2022/04/23 04:26:31;;;;;;;9.40;6.73;;;;;;;;;;5015491;28;20178;-82
2022/04/23 04:29:36;;;;;;;8.33;7.00;;;;;;;;;;5003961;28;20221;-82
2022/04/23 04:32:41;;;;;;;8.77;7.10;;;;;;;;;;5030486;28;20177;-82
2022/04/23 04:35:45;;;;;;;8.50;7.27;;;;;;;;;;5018455;28;20637;-79
2022/04/23 04:38:49;;;;;;;9.77;7.30;;;;;;;;;;4996036;28;20213;-80
2022/04/23 04:41:53;;;;;;;9.00;7.60;;;;;;;;;;5019195;28;20546;-82
2022/04/23 04:44:57;;;;;;;9.57;7.50;;;;;;;;;;4993599;28;20185;-83
2022/04/23 04:48:04;;;;;;;9.63;7.77;;;;;;;;;;5002750;28;20213;-84
2022/04/23 04:51:09;;;;;;;12.43;7.87;;;;;;;;;;5020175;28;20198;-84
2022/04/23 04:54:13;;;;;;;11.53;8.77;;;;;;;;;;4994589;28;20178;-82
2022/04/23 04:57:17;;;;;;;13.33;8.73;;;;;;;;;;4995505;28;20181;-82
2022/04/23 05:00:21;;;;;;;13.53;9.53;;;;;;;;;;5024589;28;20210;-84
2022/04/23 05:03:25;;;;;;;11.73;8.83;;;;;;;;;;5033129;28;20189;-82
2022/04/23 05:06:30;;;;;;;12.20;9.20;;;;;;;;;;5014921;28;20185;-82
2022/04/23 05:09:33;;;;;;;10.53;7.80;;;;;;;;;;5014740;28;20217;-82
2022/04/23 05:12:38;;;;;;;11.87;8.40;;;;;;;;;;5015070;28;20174;-82
2022/04/23 05:15:44;;;;;;;12.00;8.90;;;;;;;;;;5014525;28;20521;-82
2022/04/23 05:18:48;;;;;;;13.73;8.77;;;;;;;;;;4992727;28;20217;-82
2022/04/23 05:21:52;;;;;;;12.10;9.10;;;;;;;;;;5009619;28;20205;-84
2022/04/23 05:24:57;;;;;;;11.03;8.50;;;;;;;;;;5010216;28;20182;-84
2022/04/23 05:28:01;;;;;;;11.17;7.77;;;;;;;;;;5026832;28;20225;-82
2022/04/23 05:31:05;;;;;;;10.73;8.23;;;;;;;;;;5004847;28;20181;-84
2022/04/23 05:34:09;;;;;;;11.90;8.50;;;;;;;;;;5013636;28;20185;-84
2022/04/23 05:37:13;;;;;;;10.03;8.40;;;;;;;;;;5003548;28;20197;-80
2022/04/23 05:40:17;;;;;;;10.17;7.63;;;;;;;;;;4991931;28;20182;-82
2022/04/23 05:43:22;;;;;;;12.97;8.60;;;;;;;;;;5014942;28;20186;-82
2022/04/23 05:46:26;;;;;;;9.70;7.80;;;;;;;;;;5015176;28;20178;-80
2022/04/23 05:49:30;;;;;;;11.00;7.60;;;;;;;;;;5022109;28;20209;-84
2022/04/23 05:52:35;;;;;;;9.13;7.23;;;;;;;;;;4992035;28;20174;-82
2022/04/23 05:55:38;;;;;;;10.20;7.60;;;;;;;;;;5003468;28;20173;-82
2022/04/23 05:58:43;;;;;;;9.40;7.40;;;;;;;;;;5025755;28;20217;-80
2022/04/23 06:01:47;;;;;;;9.03;7.40;;;;;;;;;;4993019;28;20205;-84
2022/04/23 06:04:52;;;;;;;9.13;7.23;;;;;;;;;;5029608;28;20189;-80
2022/04/23 06:07:56;;;;;;;8.03;6.87;;;;;;;;;;5018336;28;20225;-82
2022/04/23 06:11:00;;;;;;;10.20;7.17;;;;;;;;;;5013613;28;20181;-82
2022/04/23 06:14:05;;;;;;;10.37;7.67;;;;;;;;;;5028435;28;20256;-83
2022/04/23 06:17:11;;;;;;;9.90;7.20;;;;;;;;;;5025912;28;20186;-80
2022/04/23 06:20:16;;;;;;;10.00;7.53;;;;;;;;;;5003220;28;20182;-82
2022/04/23 06:23:20;;;;;;;10.37;7.20;;;;;;;;;;4994315;28;20186;-84
2022/04/23 06:26:25;;;;;;;10.27;7.93;;;;;;;;;;5001568;28;20201;-82
2022/04/23 06:29:29;;;;;;;7.90;6.87;;;;;;;;;;5013843;28;20225;-82
2022/04/23 06:32:45;;;;;;;8.43;6.77;;;;;;;;;;5135129;27;20717;-85
2022/04/23 06:35:49;;;;;;;9.53;7.20;;;;;;;;;;5070686;28;20182;-86
2022/04/23 06:38:54;;;;;;;10.10;6.93;;;;;;;;;;5078425;28;20218;-83
2022/04/23 06:41:59;;;;;;;9.47;7.47;;;;;;;;;;5079694;28;20567;-83
2022/04/23 06:45:04;;;;;;;11.03;7.20;;;;;;;;;;5085516;28;20187;-86
2022/04/23 06:48:09;;;;;;;12.20;7.97;;;;;;;;;;5058955;28;20632;-83
2022/04/23 06:51:12;;;;;;;9.53;8.03;;;;;;;;;;5065823;28;20202;-81
2022/04/23 06:54:17;;;;;;;10.87;7.50;;;;;;;;;;5090565;28;20175;-80
2022/04/23 06:57:25;;;;;;;10.00;7.67;;;;;;;;;;5069605;28;20559;-81
2022/04/23 07:00:29;;;;;;;9.40;7.47;;;;;;;;;;5074341;28;20195;-81
2022/04/23 07:03:33;;;;;;;29.57;9.40;;;;;;;;;;5078499;28;20179;-81
2022/04/23 07:06:37;;;;;;;10.73;8.00;;;;;;;;;;5089719;28;20174;-81
2022/04/23 07:09:41;;;;;;;9.97;7.80;;;;;;;;;;5066592;28;20214;-81
2022/04/23 07:12:45;;;;;;;8.97;8.03;;;;;;;;;;5078562;28;20214;-80
2022/04/23 07:15:49;;;;;;;14.80;8.57;;;;;;;;;;5078779;28;20187;-81
2022/04/23 07:18:53;;;;;;;9.90;7.67;;;;;;;;;;5089845;28;20210;-80
2022/04/23 07:21:57;;;;;;;13.83;8.23;;;;;;;;;;5101551;28;20183;-81
2022/04/23 07:25:01;;;;;;;12.70;8.37;;;;;;;;;;5067068;28;20182;-81
2022/04/23 07:28:06;;;;;;;8.90;8.00;;;;;;;;;;5089549;28;20214;-81
2022/04/23 07:31:10;;;;;;;10.30;7.83;;;;;;;;;;5089213;28;20681;-81
2022/04/23 07:37:37;;;;;;;11.73;8.03;;;;;;;;;;5077762;28;20515;-81
2022/04/23 07:40:41;;;;;;;11.37;9.03;;;;;;;;;;5066319;28;20191;-80
2022/04/23 07:43:46;;;;;;;9.00;7.67;;;;;;;;;;5066845;28;20195;-81
2022/04/23 07:46:51;;;;;;;10.97;8.20;;;;;;;;;;5064424;28;20172;-80
2022/04/23 07:49:55;;;;;;;10.47;8.17;;;;;;;;;;5053197;28;20180;-81
2022/04/23 07:52:59;;;;;;;10.77;8.00;;;;;;;;;;5088491;28;20226;-86
2022/04/23 07:56:04;;;;;;;8.97;7.23;;;;;;;;;;5069262;28;20635;-86
2022/04/23 07:59:08;;;;;;;12.37;8.07;;;;;;;;;;5080456;28;20207;-86
2022/04/23 08:02:13;;;;;;;11.27;8.10;;;;;;;;;;5071136;28;20188;-83
2022/04/23 08:05:18;;;;;;;10.23;8.23;;;;;;;;;;5063496;28;20192;-85
2022/04/23 08:08:22;;;;;;;10.07;7.80;;;;;;;;;;5078511;28;20211;-85
2022/04/23 08:11:26;;;;;;;9.17;7.43;;;;;;;;;;5046754;28;20215;-84
2022/04/23 08:14:31;;;;;;;8.40;7.50;;;;;;;;;;5047023;28;20204;-84
2022/04/23 08:17:35;;;;;;;9.27;7.70;;;;;;;;;;5046657;28;20180;-84
2022/04/23 08:20:41;;;;;;;9.27;7.23;;;;;;;;;;5063480;28;20196;-84
2022/04/23 08:23:45;;;;;;;12.20;7.67;;;;;;;;;;5066351;28;20184;-84
2022/04/23 08:26:49;;;;;;;9.93;7.67;;;;;;;;;;5054843;28;20203;-86
2022/04/23 08:33:16;;;;;;;17.20;8.30;;;;;;;;;;5075543;28;20199;-86
2022/04/23 08:36:21;;;;;;;12.37;8.40;;;;;;;;;;5063956;28;20203;-86
2022/04/23 08:39:26;;;;;;;11.23;8.30;;;;;;;;;;5083022;28;20211;-83
2022/04/23 08:42:31;;;;;;;11.07;9.07;;;;;;;;;;5066023;28;20171;-84
2022/04/23 08:45:37;;;;;;;10.57;8.43;;;;;;;;;;5065815;28;20176;-85
2022/04/23 08:48:46;;;;;;;11.07;8.67;;;;;;;;;;5078131;28;20219;-88
2022/04/23 08:52:11;;;;;;;14.40;9.43;;;;;;;;;;5049239;28;20208;-87
2022/04/23 08:55:18;;;;;;;11.93;9.57;;;;;;;;;;5053492;28;20192;-86
2022/04/23 08:58:24;;;;;;;12.67;9.33;;;;;;;;;;5043088;28;20212;-86
2022/04/23 09:01:31;;;;;;;16.70;9.97;;;;;;;;;;5032924;28;20195;-85
2022/04/23 09:04:42;;;;;;;16.00;10.00;;;;;;;;;;5042802;28;20180;-88
2022/04/23 09:07:53;;;;;;;14.27;9.80;;;;;;;;;;5047103;28;20228;-87
2022/04/23 09:10:58;;;;;;;14.50;10.00;;;;;;;;;;5033902;28;20191;-86
2022/04/23 09:14:08;;;;;;;15.03;9.93;;;;;;;;;;5042476;28;20169;-90
2022/04/23 09:24:27;;;;;;;14.70;10.87;;;;;;;;;;5064520;28;20681;-91
2022/04/23 09:27:34;;;;;;;16.07;9.90;;;;;;;;;;5061250;28;20553;-90
2022/04/23 09:30:38;;;;;;;15.77;11.00;;;;;;;;;;5052442;28;20203;-90
2022/04/23 09:33:44;;;;;;;16.37;11.43;;;;;;;;;;5042950;28;20179;-87
2022/04/23 09:36:50;;;;;;;14.10;10.67;;;;;;;;;;5061788;28;20200;-86
2022/04/23 09:39:54;;;;;;;17.27;10.60;;;;;;;;;;5071649;28;20194;-86
2022/04/23 09:43:03;;;;;;;14.30;11.00;;;;;;;;;;5056103;28;20195;-89
2022/04/23 09:46:09;;;;;;;17.33;11.43;;;;;;;;;;5042460;28;20650;-91
2022/04/23 09:49:23;;;;;;;16.73;11.43;;;;;;;;;;5043794;28;20216;-91
2022/04/23 09:52:31;;;;;;;16.40;11.67;;;;;;;;;;5053271;28;20210;-91
2022/04/23 09:55:36;;;;;;;15.83;11.20;;;;;;;;;;5042415;28;20191;-91
2022/04/23 09:58:40;;;;;;;18.83;12.53;;;;;;;;;;5042175;28;20228;-88
2022/04/23 10:01:47;;;;;;;15.40;11.70;;;;;;;;;;5042316;28;20179;-90
2022/04/23 10:04:56;;;;;;;17.50;12.80;;;;;;;;;;5041959;28;20191;-88
2022/04/23 10:08:03;;;;;;;17.97;11.87;;;;;;;;;;5041883;28;20579;-90
2022/04/23 10:11:11;;;;;;;20.93;13.07;;;;;;;;;;5045053;28;20176;-88
2022/04/23 10:14:22;;;;;;;20.20;13.17;;;;;;;;;;5045675;28;20184;-88
2022/04/23 10:17:31;;;;;;;21.20;13.93;;;;;;;;;;5041684;28;20257;-88
2022/04/23 10:20:40;;;;;;;18.50;12.77;;;;;;;;;;5049765;28;20203;-88
2022/04/23 10:24:05;;;;;;;18.20;12.43;;;;;;;;;;5042693;28;20196;-92
2022/04/23 10:27:10;;;;;;;21.00;13.50;;;;;;;;;;5030262;28;20639;-89
2022/04/23 10:30:15;;;;;;;19.93;13.70;;;;;;;;;;5030612;28;20193;-90
2022/04/23 10:33:25;;;;;;;19.33;13.63;;;;;;;;;;5041634;28;20817;-86
2022/04/23 10:36:29;;;;;;;19.10;14.00;;;;;;;;;;5049270;28;20275;-86
2022/04/23 10:39:34;;;;;;;20.20;12.93;;;;;;;;;;5067824;28;20227;-86
2022/04/23 10:42:39;;;;;;;16.67;12.93;;;;;;;;;;5050699;28;20180;-87
2022/04/23 10:45:43;;;;;;;18.13;12.63;;;;;;;;;;5072671;28;20180;-88
2022/04/23 10:48:47;;;;;;;19.70;13.37;;;;;;;;;;5029794;28;20227;-88
2022/04/23 10:51:58;;;;;;;19.87;12.57;;;;;;;;;;5041060;28;20189;-88
2022/04/23 10:55:02;;;;;;;20.30;12.97;;;;;;;;;;5052484;28;20547;-88
2022/04/23 10:58:21;;;;;;;15.70;12.53;;;;;;;;;;5041028;28;20582;-90
2022/04/23 11:01:51;;;;;;;17.77;13.33;;;;;;;;;;5041917;28;20185;-89
2022/04/23 11:12:15;;;;;;;19.93;13.93;;;;;;;;;;5052099;28;20204;-88
2022/04/23 11:15:20;;;;;;;20.13;13.70;;;;;;;;;;5041770;28;20191;-88
2022/04/23 11:18:24;;;;;;;23.47;14.70;;;;;;;;;;5053889;28;20229;-88
2022/04/23 11:21:32;;;;;;;17.27;12.87;;;;;;;;;;5033735;28;20201;-88
2022/04/23 11:24:37;;;;;;;19.03;13.17;;;;;;;;;;5051549;28;20204;-88
2022/04/23 11:27:47;;;;;;;19.30;13.23;;;;;;;;;;5052671;28;20211;-89
2022/04/23 11:30:53;;;;;;;17.03;12.73;;;;;;;;;;5064556;28;20214;-88
2022/04/23 11:33:59;;;;;;;19.10;13.17;;;;;;;;;;5065027;28;20219;-86
2022/04/23 11:37:53;;;;;;;21.17;13.60;;;;;;;;;;5053106;28;20180;-90
2022/04/23 11:40:57;;;;;;;16.77;12.97;;;;;;;;;;5052930;28;20172;-89
2022/04/23 11:48:12;;;;;;;17.33;12.90;;;;;;;;;;5034372;28;20221;-88
2022/04/23 11:51:21;;;;;;;21.77;12.97;;;;;;;;;;4993653;28;20213;-86
2022/04/23 11:54:33;;;;;;;15.63;12.37;;;;;;;;;;5056088;28;20195;-87
2022/04/23 11:57:38;;;;;;;17.53;11.93;;;;;;;;;;5044551;28;20211;-87
2022/04/23 12:01:29;;;;;;;16.10;12.07;;;;;;;;;;5056397;28;20188;-90
2022/04/23 12:04:43;;;;;;;12.83;11.13;;;;;;;;;;5044195;28;20547;-87
2022/04/23 12:07:50;;;;;;;14.77;11.87;;;;;;;;;;5055830;28;20223;-87
2022/04/23 12:10:54;;;;;;;15.67;11.50;;;;;;;;;;5044230;28;20191;-87
2022/04/23 12:14:00;;;;;;;15.87;11.30;;;;;;;;;;5044135;28;20215;-87
2022/04/23 12:17:08;;;;;;;19.07;12.70;;;;;;;;;;5056562;28;20209;-87
2022/04/23 12:20:17;;;;;;;16.60;11.80;;;;;;;;;;5050250;28;20198;-88
2022/04/23 12:23:21;;;;;;;17.97;11.60;;;;;;;;;;5065834;28;20194;-88
2022/04/23 12:26:31;;;;;;;15.93;10.90;;;;;;;;;;5053549;28;20187;-86
2022/04/23 12:40:44;;;;;;;12.17;10.33;;;;;;;;;;5080872;28;20210;-87
2022/04/23 12:43:30;;;;;;;13.93;10.60;;;;;;;;;;5054628;28;20543;-87
2022/04/23 12:46:51;;;;;;;14.50;11.73;;;;;;;;;;5053776;28;20200;-87
2022/04/23 12:50:00;;;;;;;13.43;11.03;;;;;;;;;;5043180;28;20539;-87
2022/04/23 12:53:05;;;;;;;14.03;9.40;;;;;;;;;;5043342;28;20721;-86
2022/04/23 12:56:09;;;;;;;14.60;9.87;;;;;;;;;;5043158;28;20199;-86
2022/04/23 12:59:13;;;;;;;13.07;9.83;;;;;;;;;;5043549;28;20208;-86
2022/04/23 13:02:17;;;;;;;11.90;9.80;;;;;;;;;;5043064;28;20172;-89
2022/04/23 13:05:21;;;;;;;11.60;9.33;;;;;;;;;;5054857;28;20188;-88
2022/04/23 13:11:49;;;;;;;10.87;8.40;;;;;;;;;;5054727;28;20192;-87
2022/04/23 13:14:54;;;;;;;10.20;9.10;;;;;;;;;;5043617;28;20176;-87
2022/04/23 13:17:58;;;;;;;11.07;8.93;;;;;;;;;;5042871;28;20564;-89
2022/04/23 13:21:02;;;;;;;10.67;9.17;;;;;;;;;;5050925;28;20191;-89
2022/04/23 13:24:06;;;;;;;11.33;9.00;;;;;;;;;;5065194;28;20184;-91
2022/04/23 13:27:10;;;;;;;11.07;8.83;;;;;;;;;;5072364;28;20183;-91
2022/04/23 13:30:15;;;;;;;11.20;8.30;;;;;;;;;;5041677;28;20187;-90
2022/04/23 13:33:19;;;;;;;10.80;9.10;;;;;;;;;;5041836;28;20219;-90
2022/04/23 13:36:23;;;;;;;10.00;8.77;;;;;;;;;;5041685;28;20188;-90
2022/04/23 13:39:27;;;;;;;9.83;8.50;;;;;;;;;;5056576;28;20215;-89
2022/04/23 13:42:31;;;;;;;10.37;8.10;;;;;;;;;;5041443;28;20196;-89
2022/04/23 13:45:35;;;;;;;12.63;9.17;;;;;;;;;;5030786;28;20184;-90
2022/04/23 13:48:39;;;;;;;11.87;8.57;;;;;;;;;;5041689;28;20215;-87
2022/04/23 13:51:52;;;;;;;10.70;8.93;;;;;;;;;;5053095;28;20184;-91
2022/04/23 13:54:56;;;;;;;10.70;8.90;;;;;;;;;;5040400;28;20713;-92
2022/04/23 13:58:00;;;;;;;9.77;8.77;;;;;;;;;;5042466;28;20732;-91
2022/04/23 14:01:05;;;;;;;11.10;8.82;;;;;;;;;;5046530;28;20679;-91
2022/04/23 14:10:54;;;;;;;9.03;7.60;;;;;;;;;;5064288;28;20180;-91
2022/04/23 14:14:01;;;;;;;9.27;8.15;;;;;;;;;;5051402;28;20688;-90
2022/04/23 14:17:06;;;;;;;7.80;6.47;;;;;;;;;;5059162;28;20187;-90
2022/04/23 14:20:10;;;;;;;9.67;6.87;;;;;;;;;;5061491;28;20184;-90
2022/04/23 14:23:14;;;;;;;7.50;6.75;;;;;;;;;;5060715;28;20723;-89
2022/04/23 14:26:18;;;;;;;8.82;8.00;;;;;;;;;;5060027;28;21016;-92
2022/04/23 14:29:22;;;;;;;7.80;7.00;;;;;;;;;;5041750;28;20211;-89
2022/04/23 14:32:26;;;;;;;7.93;6.93;;;;;;;;;;5058281;28;20207;-89
2022/04/23 14:35:30;;;;;;;8.60;7.13;;;;;;;;;;5060977;28;20654;-89
2022/04/23 14:42:33;;;;;;;9.70;7.57;;;;;;;;;;5065706;28;20199;-91
2022/04/23 14:45:39;;;;;;;7.80;6.60;;;;;;;;;;5040942;28;20192;-89
2022/04/23 14:48:45;;;;;;;8.07;6.83;;;;;;;;;;5063763;28;20211;-88
2022/04/23 14:55:12;;;;;;;8.10;6.77;;;;;;;;;;5068321;28;20208;-89
2022/04/23 14:58:17;;;;;;;9.13;6.73;;;;;;;;;;5044517;28;20219;-89
2022/04/23 15:01:21;;;;;;;7.40;6.67;;;;;;;;;;5056399;28;20180;-89
2022/04/23 15:04:25;;;;;;;9.17;6.60;;;;;;;;;;5056747;28;20200;-89
2022/04/23 15:07:29;;;;;;;8.63;6.93;;;;;;;;;;5055779;28;20192;-89
2022/04/23 15:10:33;;;;;;;7.83;6.40;;;;;;;;;;5055727;28;20192;-89
2022/04/23 15:13:38;;;;;;;8.17;6.70;;;;;;;;;;5052796;28;20219;-89
2022/04/23 15:16:42;;;;;;;7.63;6.30;;;;;;;;;;5051655;28;20212;-90
2022/04/23 15:19:48;;;;;;;9.97;6.47;;;;;;;;;;5044482;28;20271;-89
2022/04/23 15:22:52;;;;;;;7.97;6.57;;;;;;;;;;5055629;28;20200;-89
2022/04/23 15:25:56;;;;;;;7.13;5.90;;;;;;;;;;5044384;28;20192;-89
2022/04/23 15:29:02;;;;;;;7.03;5.60;;;;;;;;;;5056988;28;20219;-90
2022/04/23 15:32:11;;;;;;;7.87;5.93;;;;;;;;;;5055753;28;20200;-90
2022/04/23 15:35:15;;;;;;;10.03;6.33;;;;;;;;;;5075751;28;20203;-89
2022/04/23 15:38:21;;;;;;;8.00;6.03;;;;;;;;;;5064186;28;20214;-89
2022/04/23 15:41:26;;;;;;;8.27;6.60;;;;;;;;;;5076041;28;20176;-89
2022/04/23 15:44:29;;;;;;;8.33;6.00;;;;;;;;;;5052940;28;20176;-89
2022/04/23 15:47:34;;;;;;;8.17;6.10;;;;;;;;;;5075386;28;20191;-89
2022/04/23 15:50:44;;;;;;;7.97;6.40;;;;;;;;;;5064020;28;20195;-90
2022/04/23 15:53:49;;;;;;;7.77;6.20;;;;;;;;;;5052680;28;20207;-89
2022/04/23 15:56:55;;;;;;;8.43;6.53;;;;;;;;;;5052516;28;20195;-89
2022/04/23 16:00:01;;;;;;;7.30;6.30;;;;;;;;;;5052705;28;20199;-89
2022/04/23 16:06:29;;;;;;;8.47;6.60;;;;;;;;;;5063494;28;20183;-89
2022/04/23 16:09:33;;;;;;;9.67;6.70;;;;;;;;;;5052122;28;20219;-89
2022/04/23 16:12:37;;;;;;;9.07;6.93;;;;;;;;;;5065657;28;20184;-84
2022/04/23 16:15:41;;;;;;;8.40;6.13;;;;;;;;;;5067323;28;20184;-85
2022/04/23 16:18:46;;;;;;;8.30;6.47;;;;;;;;;;5046885;28;20564;-81
2022/04/23 16:21:50;;;;;;;7.43;6.23;;;;;;;;;;5059058;28;20627;-81
2022/04/23 16:24:54;;;;;;;7.10;6.40;;;;;;;;;;5047527;28;20176;-81
2022/04/23 16:27:59;;;;;;;11.40;6.33;;;;;;;;;;5069899;28;20220;-81
2022/04/23 16:31:03;;;;;;;9.90;7.10;;;;;;;;;;5072223;28;20198;-81
2022/04/23 16:34:07;;;;;;;8.20;6.50;;;;;;;;;;5079307;28;20666;-81
2022/04/23 16:47:08;;;;;;;13.43;7.23;;;;;;;;;;5073014;28;20199;-82
2022/04/23 16:50:12;;;;;;;8.57;7.27;;;;;;;;;;5078037;28;20179;-81
2022/04/23 16:53:17;;;;;;;9.30;7.03;;;;;;;;;;5067834;28;20179;-85
2022/04/23 16:56:21;;;;;;;9.70;7.47;;;;;;;;;;5061937;28;20171;-85
2022/04/23 16:59:25;;;;;;;10.37;7.73;;;;;;;;;;5072822;28;20219;-85
2022/04/23 17:02:30;;;;;;;8.93;7.47;;;;;;;;;;5053095;28;20181;-85
2022/04/23 17:05:35;;;;;;;9.10;7.43;;;;;;;;;;5057148;28;20187;-85
2022/04/23 17:08:40;;;;;;;10.10;7.47;;;;;;;;;;5062470;28;20219;-87
2022/04/23 17:11:44;;;;;;;9.83;7.23;;;;;;;;;;5051206;28;20523;-88
2022/04/23 17:14:48;;;;;;;10.50;7.57;;;;;;;;;;5062455;28;20199;-87
2022/04/23 17:17:53;;;;;;;9.43;7.47;;;;;;;;;;5062745;28;20223;-88
2022/04/23 17:20:57;;;;;;;9.53;7.60;;;;;;;;;;5050797;28;20183;-87
2022/04/23 17:24:00;;;;;;;9.97;7.77;;;;;;;;;;5062541;28;20279;-87
2022/04/23 17:27:05;;;;;;;9.17;7.93;;;;;;;;;;5073591;28;20179;-89
2022/04/23 17:30:10;;;;;;;11.23;8.10;;;;;;;;;;5050033;28;20527;-88
2022/04/23 17:33:14;;;;;;;9.57;7.87;;;;;;;;;;5050192;28;20207;-88
2022/04/23 17:36:19;;;;;;;9.07;7.13;;;;;;;;;;5062636;28;20520;-88
2022/04/23 17:39:23;;;;;;;8.70;7.30;;;;;;;;;;5049978;28;20705;-87
2022/04/23 17:42:27;;;;;;;8.93;7.53;;;;;;;;;;5057431;28;20191;-86
2022/04/23 17:45:31;;;;;;;9.17;7.10;;;;;;;;;;5052196;28;20183;-87
2022/04/23 17:48:36;;;;;;;8.97;7.40;;;;;;;;;;5061960;28;20211;-86
2022/04/23 17:51:41;;;;;;;9.70;7.63;;;;;;;;;;5061361;28;20540;-87
2022/04/23 17:54:45;;;;;;;12.20;7.37;;;;;;;;;;5050130;28;20302;-87
2022/04/23 17:57:49;;;;;;;10.10;7.70;;;;;;;;;;5053725;28;20215;-87
2022/04/23 18:07:39;;;;;;;9.07;7.67;;;;;;;;;;5069751;28;20641;-86
2022/04/23 18:10:54;;;;;;;11.70;7.37;;;;;;;;;;5060908;28;20199;-86
2022/04/23 18:13:58;;;;;;;9.27;7.43;;;;;;;;;;5049576;28;20184;-86
2022/04/23 18:17:03;;;;;;;10.10;7.43;;;;;;;;;;5060942;28;20192;-87
2022/04/23 18:20:07;;;;;;;9.13;7.80;;;;;;;;;;5061318;28;20180;-87
2022/04/23 18:23:12;;;;;;;8.80;7.23;;;;;;;;;;5072499;28;20195;-86
2022/04/23 18:26:16;;;;;;;15.30;8.07;;;;;;;;;;5055726;28;20693;-86
2022/04/23 18:29:20;;;;;;;11.90;8.60;;;;;;;;;;5061213;28;20215;-86
2022/04/23 18:32:25;;;;;;;11.70;7.63;;;;;;;;;;5060852;28;20210;-86
2022/04/23 18:35:30;;;;;;;13.43;8.07;;;;;;;;;;5048591;28;20218;-86
2022/04/23 18:38:35;;;;;;;9.83;8.47;;;;;;;;;;5048755;28;20223;-86
2022/04/23 18:41:39;;;;;;;11.47;8.67;;;;;;;;;;5041010;28;20188;-84
2022/04/23 18:44:44;;;;;;;10.47;8.60;;;;;;;;;;5053695;28;20177;-84
2022/04/23 18:47:48;;;;;;;14.27;9.10;;;;;;;;;;5058968;28;20222;-84
2022/04/23 18:50:52;;;;;;;13.60;9.30;;;;;;;;;;5050505;28;20203;-84
2022/04/23 18:53:57;;;;;;;12.07;9.43;;;;;;;;;;5050263;28;20194;-87
2022/04/23 18:57:01;;;;;;;13.63;9.63;;;;;;;;;;5049560;28;20172;-87
2022/04/23 19:00:06;;;;;;;11.90;9.30;;;;;;;;;;5054299;28;20650;-84
2022/04/23 19:03:10;;;;;;;11.17;8.63;;;;;;;;;;5062345;28;20184;-84
2022/04/23 19:06:15;;;;;;;15.40;8.97;;;;;;;;;;5073414;28;20638;-87
2022/04/23 19:09:20;;;;;;;12.17;9.03;;;;;;;;;;5063796;28;20674;-84
2022/04/23 19:12:25;;;;;;;12.10;9.70;;;;;;;;;;5045140;28;20188;-86
2022/04/23 19:15:29;;;;;;;11.30;9.20;;;;;;;;;;5064894;28;20216;-87
2022/04/23 19:18:34;;;;;;;12.43;9.63;;;;;;;;;;5041706;28;20219;-84
2022/04/23 19:28:24;;;;;;;12.20;9.60;;;;;;;;;;5052616;28;20699;-86
2022/04/23 19:31:29;;;;;;;12.37;9.70;;;;;;;;;;5030785;28;20512;-84
2022/04/23 19:34:35;;;;;;;12.53;9.50;;;;;;;;;;5046341;28;20208;-85
2022/04/23 19:37:40;;;;;;;14.30;10.20;;;;;;;;;;5040648;28;20177;-87